NDO weather

San Fernando Airstrip
Teapa, Tabasco, Mexico

Public forecast

Using degrees Celsius for public forecast. Weather courtesy of forecast.io.

Closest aviation weather report (METAR) to San Fernando Airstrip

Report is more than 2 hours old.

Closest report is Carlos Rovirosa Pérez International Airport, 25.3 nm (46.8 km) NNE. Retrieved 2020/02/26 02:45 UTC (5 hours ago):

MMVA 260245Z 00000KT 7SM SCT013 SCT070 25/23 A2985 RMK SLP105 52027 916 8/120 HZY

Closest aviation forecast (TAF) to San Fernando Airstrip

Closest forecast is Carlos Rovirosa Pérez International Airport, 25.3 nm (46.8 km) NNE. Retrieved 2020/02/26 06:55 UTC (46 minutes ago):

TAF MMVA 260452Z 2606/2706 00000KT 6SM HZ SCT012 SCT070 TEMPO 2611/2615 3SM BR BKN010 FM261800 36018KT P6SM BKN020 BKN080 FM270100 36020KT 4SM -RA BKN015 BKN080 TEMPO 2702/2706 2SM -DZ BR OVC008